カリーニングラード の空港の天気 - METARとTAF

フラブロヴォ空港 ( UMKK / KGD ) - ロシア カリーニングラード
飛行場実況気象(Metar)
観測時間04/15 06:30 EET (04/15 04:30 UTC)
風向・風速北 8m/s
視程10km以上
天気現象
全天を覆う雲 雲底高度 850m
気温4℃
湿度87%
気圧1022hPa
METARUMKK 150430Z 36008MPS 9999 OVC028 04/02 Q1022 R24/290195 NOSIG RMK QFE765/1020
過去の天気等 Google飛行場航空写真 Wunderground天気予報

過去48時間のMETAR

飛行場予報(TAF)
発表時間: 4/15 03:55 EET (4/15 01:55 UTC)
予報対象時間: 15日5時 EET ~ 16日5時 EET
風向・風速北 7m/s 瞬間風速 13m/s
視程6000m
天気現象弱い雨
全天の8割程度の雲 雲底高度 490m
15日5時 EET ~ 15日11時 EET に一時的に
視程3100m
天気現象弱いしゅう雨 もや
少しの雲 雲底高度 180m
全天の8割程度の積乱雲 雲底高度 400m
15日11時 EET から
風向・風速北北東 10m/s 瞬間風速 15m/s
視程10km以上
全天の8割程度の雲 雲底高度 490m
15日16時 EET ~ 15日18時 EET に徐々に
風向・風速北北東 7m/s 瞬間風速 12m/s
16日2時 EET ~ 16日5時 EET に一時的に
視程3100m
天気現象弱いしゅう雨 もや
少しの雲 雲底高度 180m
全天の8割程度の積乱雲 雲底高度 400m
TAF UMKK 150155Z 1503/1603 01007G13MPS 6000 -RA BKN016
TEMPO 1503/1509 3100 -SHRA BR FEW006 BKN013CB
FM150900 02010G15MPS 9999 BKN016
BECMG 1514/1516 02007G12MPS
TEMPO 1600/1603 3100 -SHRA BR FEW006 BKN013CB